Time;durP1;ratioP1;P1;durP2;ratioP2;P2;SDS_P1;SDS_P2;PMS_P1;PMS_P2;Temp;Humidity;BMP_temperature;BMP_pressure;BME280_temperature;BME280_humidity;BME280_pressure;Samples;Min_cycle;Max_cycle;Signal;HPM_P1;HPM_P2
2023/05/18 00:02:14;;;;;;;10.20;2.47;;;7.50;1.00;;;;;;5106983;28;20178;-77
2023/05/18 00:04:40;;;;;;;8.47;2.10;;;7.50;1.00;;;;;;5094456;28;20190;-77
2023/05/18 00:07:06;;;;;;;4.83;1.67;;;7.50;1.00;;;;;;5093890;28;20548;-77
2023/05/18 00:09:34;;;;;;;8.57;2.30;;;7.40;1.00;;;;;;5093879;28;20215;-76
2023/05/18 00:12:00;;;;;;;6.80;2.10;;;7.40;1.00;;;;;;5093824;28;20171;-77
2023/05/18 00:14:26;;;;;;;4.13;1.60;;;7.40;1.00;;;;;;5093880;28;20297;-77
2023/05/18 00:16:52;;;;;;;8.37;2.20;;;7.40;1.00;;;;;;5093212;28;20580;-76
2023/05/18 00:19:19;;;;;;;6.17;2.47;;;7.40;1.00;;;;;;5092622;28;20205;-77
2023/05/18 00:21:45;;;;;;;9.00;2.07;;;7.40;1.00;;;;;;5092205;28;20272;-77
2023/05/18 00:24:12;;;;;;;7.73;2.10;;;7.30;1.00;;;;;;5093851;28;20188;-77
2023/05/18 00:26:39;;;;;;;8.57;2.20;;;7.30;1.00;;;;;;5093689;28;20687;-77
2023/05/18 00:29:05;;;;;;;6.27;1.97;;;7.30;1.00;;;;;;5093632;28;20173;-77
2023/05/18 00:31:35;;;;;;;11.83;2.57;;;7.20;1.00;;;;;;5092345;28;20170;-78
2023/05/18 00:34:12;;;;;;;7.07;2.13;;;7.30;1.00;;;;;;5092570;28;20625;-77
2023/05/18 00:36:38;;;;;;;15.43;3.87;;;7.20;1.00;;;;;;5092785;28;20232;-78
2023/05/18 00:39:05;;;;;;;5.57;2.00;;;7.20;3.10;;;;;;5093528;28;20622;-76
2023/05/18 00:41:31;;;;;;;9.63;2.20;;;7.10;1.00;;;;;;5093939;28;20171;-78
2023/05/18 00:43:57;;;;;;;9.57;2.03;;;7.10;13.40;;;;;;5093710;28;20174;-77
2023/05/18 00:46:25;;;;;;;4.93;1.87;;;7.10;6.30;;;;;;5092150;28;20201;-77
2023/05/18 00:48:52;;;;;;;2.70;1.70;;;7.10;10.50;;;;;;5094020;28;20178;-76
2023/05/18 00:51:19;;;;;;;7.60;2.10;;;7.10;50.00;;;;;;5093494;28;20597;-77
2023/05/18 00:53:45;;;;;;;6.37;2.00;;;7.00;58.80;;;;;;5093840;28;20620;-77
2023/05/18 00:56:11;;;;;;;5.17;1.93;;;7.00;52.10;;;;;;5093572;28;20206;-77
2023/05/18 00:58:39;;;;;;;8.23;2.07;;;6.90;86.60;;;;;;5091721;28;20745;-77
2023/05/18 01:01:05;;;;;;;5.90;1.97;;;6.90;47.00;;;;;;5092403;28;20732;-78
2023/05/18 01:03:37;;;;;;;5.73;2.20;;;6.90;46.30;;;;;;5093325;28;20201;-77
2023/05/18 01:06:04;;;;;;;8.87;2.20;;;6.80;84.20;;;;;;5091451;28;20190;-76
2023/05/18 01:08:31;;;;;;;11.30;2.50;;;6.80;99.90;;;;;;5091728;28;20185;-77
2023/05/18 01:11:13;;;;;;;6.67;1.80;;;6.80;99.90;;;;;;5091272;28;20228;-77
2023/05/18 01:13:53;;;;;;;5.87;2.20;;;6.80;99.90;;;;;;5094310;28;20277;-77
2023/05/18 01:16:25;;;;;;;9.30;2.60;;;6.70;99.90;;;;;;5093421;28;20690;-76
2023/05/18 01:19:06;;;;;;;4.10;1.63;;;6.70;99.90;;;;;;5091514;28;20166;-77
2023/05/18 01:21:53;;;;;;;8.63;2.23;;;6.70;99.90;;;;;;5092491;28;20235;-76
2023/05/18 01:24:24;;;;;;;10.63;3.10;;;6.70;99.90;;;;;;5092630;28;20581;-76
2023/05/18 01:26:56;;;;;;;5.03;2.07;;;6.70;99.90;;;;;;5092346;28;20177;-76
2023/05/18 01:29:24;;;;;;;7.17;1.80;;;6.60;99.90;;;;;;5094990;28;20199;-76
2023/05/18 01:31:49;;;;;;;6.33;2.00;;;6.60;99.90;;;;;;5096618;28;20231;-76
2023/05/18 01:34:15;;;;;;;7.47;2.10;;;6.60;99.90;;;;;;5096158;28;20202;-75
2023/05/18 01:36:41;;;;;;;12.87;3.00;;;6.60;99.90;;;;;;5096849;28;20166;-77
2023/05/18 01:39:08;;;;;;;8.03;2.60;;;6.50;99.90;;;;;;5096377;28;20169;-77
2023/05/18 01:41:44;;;;;;;5.23;2.13;;;6.50;99.90;;;;;;5096565;28;20167;-77
2023/05/18 01:44:17;;;;;;;7.17;2.27;;;6.50;99.90;;;;;;5096441;28;20163;-76
2023/05/18 01:47:03;;;;;;;7.43;2.53;;;6.40;99.90;;;;;;5096757;28;20186;-77
2023/05/18 01:49:47;;;;;;;12.80;3.33;;;6.40;99.90;;;;;;5094774;28;20175;-78
2023/05/18 01:52:20;;;;;;;5.17;2.43;;;6.40;99.90;;;;;;5094765;28;20201;-77
2023/05/18 01:54:51;;;;;;;7.50;2.80;;;6.40;99.90;;;;;;5095665;28;20240;-77
2023/05/18 01:57:19;;;;;;;5.00;2.13;;;6.40;99.90;;;;;;5096148;28;20170;-76
2023/05/18 01:59:45;;;;;;;4.73;2.03;;;6.30;99.90;;;;;;5095673;28;20190;-76
2023/05/18 02:02:10;;;;;;;9.00;2.40;;;6.30;99.90;;;;;;5095865;28;20201;-77
2023/05/18 02:04:36;;;;;;;5.37;2.40;;;6.30;99.90;;;;;;5095317;28;20570;-76
2023/05/18 02:07:02;;;;;;;8.60;2.87;;;6.30;99.90;;;;;;5094110;28;20555;-75
2023/05/18 02:09:27;;;;;;;10.03;2.43;;;6.20;99.90;;;;;;5093874;28;20180;-75
2023/05/18 02:11:53;;;;;;;7.07;2.20;;;6.20;99.90;;;;;;5095257;28;20316;-76
2023/05/18 02:14:18;;;;;;;3.67;1.93;;;6.20;99.90;;;;;;5095003;28;20206;-75
2023/05/18 02:16:45;;;;;;;11.47;2.40;;;6.20;99.90;;;;;;5095456;28;20596;-75
2023/05/18 02:19:12;;;;;;;5.10;2.17;;;6.20;99.90;;;;;;5095321;28;20216;-76
2023/05/18 02:21:38;;;;;;;6.13;2.20;;;6.20;99.90;;;;;;5094999;28;20166;-75
2023/05/18 02:24:04;;;;;;;4.73;2.40;;;6.10;99.90;;;;;;5095158;28;20599;-76
2023/05/18 02:26:29;;;;;;;8.33;3.03;;;6.10;99.90;;;;;;5095078;28;20519;-75
2023/05/18 02:28:55;;;;;;;6.00;2.47;;;6.10;99.90;;;;;;5094973;28;20174;-74
2023/05/18 02:31:21;;;;;;;8.83;2.80;;;6.10;99.90;;;;;;5093784;28;20627;-76
2023/05/18 02:33:46;;;;;;;5.43;2.47;;;6.00;99.90;;;;;;5094852;28;20702;-76
2023/05/18 02:36:13;;;;;;;7.83;2.50;;;6.10;99.90;;;;;;5093288;28;20678;-75
2023/05/18 02:38:41;;;;;;;6.27;2.60;;;6.10;99.90;;;;;;5093322;28;20171;-75
2023/05/18 02:41:08;;;;;;;4.13;2.40;;;6.00;99.90;;;;;;5094687;28;20174;-74
2023/05/18 02:43:34;;;;;;;7.90;2.83;;;6.00;99.90;;;;;;5094645;28;20170;-76
2023/05/18 02:46:00;;;;;;;6.20;2.70;;;6.00;99.90;;;;;;5094803;28;20283;-75
2023/05/18 02:48:25;;;;;;;11.83;2.83;;;6.00;99.90;;;;;;5094636;28;20178;-75
2023/05/18 02:50:52;;;;;;;4.80;2.17;;;6.00;99.90;;;;;;5094658;28;20178;-75
2023/05/18 02:53:17;;;;;;;7.70;2.73;;;5.90;99.90;;;;;;5092985;28;20652;-77
2023/05/18 02:55:45;;;;;;;10.77;2.97;;;5.90;99.90;;;;;;5094348;28;20182;-76
2023/05/18 02:58:12;;;;;;;8.00;2.87;;;5.90;99.90;;;;;;5092966;28;20195;-76
2023/05/18 03:00:38;;;;;;;7.53;3.07;;;5.90;99.90;;;;;;5092912;28;20209;-75
2023/05/18 03:03:03;;;;;;;5.57;2.83;;;5.90;99.90;;;;;;5094655;28;20175;-75
2023/05/18 03:05:29;;;;;;;5.00;2.43;;;5.90;99.90;;;;;;5094142;28;20542;-75
2023/05/18 03:07:55;;;;;;;6.40;2.63;;;5.80;99.90;;;;;;5094055;28;20230;-76
2023/05/18 03:10:20;;;;;;;11.17;3.53;;;5.80;99.90;;;;;;5094378;28;20170;-75
2023/05/18 03:12:47;;;;;;;9.57;3.13;;;5.90;99.90;;;;;;5094048;28;20227;-75
2023/05/18 03:15:14;;;;;;;7.73;2.87;;;5.90;99.90;;;;;;5094013;28;20586;-75
2023/05/18 03:17:41;;;;;;;7.23;3.40;;;5.90;99.90;;;;;;5094000;28;20171;-75
2023/05/18 03:20:09;;;;;;;7.63;3.10;;;5.90;99.90;;;;;;5093936;28;20623;-75
2023/05/18 03:22:35;;;;;;;8.80;3.13;;;5.80;99.90;;;;;;5092691;28;20265;-75
2023/05/18 03:25:01;;;;;;;8.97;3.47;;;5.90;99.90;;;;;;5093839;28;20222;-75
2023/05/18 03:27:26;;;;;;;6.87;3.20;;;5.80;99.90;;;;;;5093850;28;20231;-76
2023/05/18 03:29:53;;;;;;;11.63;3.07;;;5.80;99.90;;;;;;5093764;28;20182;-76
2023/05/18 03:32:18;;;;;;;9.97;3.20;;;5.80;99.90;;;;;;5092576;28;20170;-75
2023/05/18 03:34:46;;;;;;;10.17;3.60;;;5.80;99.90;;;;;;5092238;28;20214;-75
2023/05/18 03:37:12;;;;;;;12.33;3.27;;;5.70;99.90;;;;;;5092520;28;20216;-75
2023/05/18 03:39:38;;;;;;;6.20;3.40;;;5.70;99.90;;;;;;5094287;28;20630;-75
2023/05/18 03:42:03;;;;;;;7.10;2.80;;;5.70;99.90;;;;;;5092308;28;20171;-75
2023/05/18 03:44:29;;;;;;;8.47;3.63;;;5.70;99.90;;;;;;5093484;28;20203;-76
2023/05/18 03:46:55;;;;;;;14.73;4.20;;;5.70;99.90;;;;;;5093946;28;20179;-75
2023/05/18 03:49:20;;;;;;;6.93;3.70;;;5.70;99.90;;;;;;5093954;28;20189;-75
2023/05/18 03:51:46;;;;;;;8.00;3.40;;;5.70;99.90;;;;;;5093394;28;20177;-75
2023/05/18 03:54:11;;;;;;;6.20;3.50;;;5.70;99.90;;;;;;5096042;28;20259;-74
2023/05/18 03:56:37;;;;;;;5.17;3.47;;;5.70;99.90;;;;;;5096483;28;20170;-75
2023/05/18 03:59:03;;;;;;;8.70;3.90;;;5.80;99.90;;;;;;5093571;28;20181;-75
2023/05/18 04:01:31;;;;;;;12.30;4.13;;;5.80;99.90;;;;;;5093283;28;20162;-78
2023/05/18 04:03:57;;;;;;;6.23;3.67;;;5.80;99.90;;;;;;5093155;28;20521;-75
2023/05/18 04:06:24;;;;;;;8.87;3.57;;;5.80;99.90;;;;;;5091775;28;20276;-75
2023/05/18 04:08:51;;;;;;;9.37;4.00;;;5.80;99.90;;;;;;5093151;28;20231;-75
2023/05/18 04:11:16;;;;;;;8.90;4.10;;;5.80;99.90;;;;;;5093754;28;20174;-76
2023/05/18 04:13:42;;;;;;;8.83;4.80;;;5.90;99.90;;;;;;5093693;28;20555;-76
2023/05/18 04:16:12;;;;;;;10.37;4.57;;;5.90;99.90;;;;;;5093237;28;20190;-77
2023/05/18 04:18:38;;;;;;;11.90;4.53;;;5.90;99.90;;;;;;5093160;28;20242;-75
2023/05/18 04:21:05;;;;;;;10.10;4.90;;;6.00;99.90;;;;;;5092775;28;20170;-75
2023/05/18 04:23:32;;;;;;;7.20;4.67;;;6.00;99.90;;;;;;5091647;28;20186;-77
2023/05/18 04:25:58;;;;;;;9.50;4.33;;;6.00;99.90;;;;;;5092343;28;20509;-77
2023/05/18 04:28:24;;;;;;;9.83;4.57;;;6.00;99.90;;;;;;5093568;28;20658;-76
2023/05/18 04:30:50;;;;;;;9.43;4.63;;;6.10;99.90;;;;;;5092060;28;20171;-77
2023/05/18 04:33:16;;;;;;;8.40;4.50;;;6.10;99.90;;;;;;5093604;28;20261;-77
2023/05/18 04:35:42;;;;;;;11.47;4.80;;;6.10;99.90;;;;;;5093636;28;20268;-77
2023/05/18 04:38:07;;;;;;;10.10;4.77;;;6.20;99.90;;;;;;5093827;28;20635;-77
2023/05/18 04:40:33;;;;;;;9.27;4.27;;;6.20;99.90;;;;;;5093904;28;20174;-77
2023/05/18 04:42:59;;;;;;;12.20;5.03;;;6.30;99.90;;;;;;5093860;28;20175;-78
2023/05/18 04:45:25;;;;;;;10.10;5.33;;;6.30;99.90;;;;;;5092180;28;20197;-77
2023/05/18 04:47:53;;;;;;;10.17;4.53;;;6.30;99.90;;;;;;5094144;28;20231;-77
2023/05/18 04:50:22;;;;;;;11.17;5.10;;;6.30;99.90;;;;;;5093566;28;20648;-77
2023/05/18 04:52:52;;;;;;;10.73;5.03;;;6.40;99.90;;;;;;5093557;28;20201;-78
2023/05/18 04:55:24;;;;;;;11.17;4.83;;;6.40;99.90;;;;;;5092221;28;20748;-77
2023/05/18 04:57:52;;;;;;;11.17;5.33;;;6.40;99.90;;;;;;5093767;28;20635;-77
2023/05/18 05:00:19;;;;;;;10.87;4.97;;;6.50;99.90;;;;;;5093355;28;20195;-77
2023/05/18 05:02:44;;;;;;;12.10;4.57;;;6.50;99.90;;;;;;5093589;28;20631;-77
2023/05/18 05:05:10;;;;;;;10.37;5.40;;;6.60;99.90;;;;;;5096536;28;20200;-77
2023/05/18 05:07:36;;;;;;;15.80;4.90;;;6.60;99.90;;;;;;5098233;28;20177;-77
2023/05/18 05:10:02;;;;;;;9.33;5.10;;;6.60;99.90;;;;;;5098498;28;20643;-77
2023/05/18 05:12:27;;;;;;;15.53;5.07;;;6.70;99.90;;;;;;5098261;28;20170;-77
2023/05/18 05:14:53;;;;;;;9.93;4.43;;;6.70;88.00;;;;;;5097558;28;20205;-77
2023/05/18 05:17:19;;;;;;;9.50;4.43;;;6.80;92.60;;;;;;5097197;28;20204;-77
2023/05/18 05:19:44;;;;;;;8.57;4.70;;;6.80;80.60;;;;;;5097102;28;20681;-77
2023/05/18 05:22:10;;;;;;;9.33;4.30;;;6.80;88.20;;;;;;5096894;28;20213;-77
2023/05/18 05:24:35;;;;;;;9.50;4.73;;;6.90;85.30;;;;;;5097069;28;20190;-77
2023/05/18 05:27:01;;;;;;;13.83;4.80;;;6.90;54.50;;;;;;5095612;28;20179;-77
2023/05/18 05:29:26;;;;;;;10.50;4.80;;;7.00;16.60;;;;;;5094366;28;20182;-77
2023/05/18 05:31:52;;;;;;;10.77;4.37;;;7.00;1.00;;;;;;5095465;28;20174;-77
2023/05/18 05:34:18;;;;;;;9.77;5.17;;;7.00;1.00;;;;;;5096389;28;20280;-77
2023/05/18 05:36:43;;;;;;;8.97;4.80;;;7.10;1.00;;;;;;5095962;28;20247;-77
2023/05/18 05:39:09;;;;;;;11.30;4.50;;;7.10;1.00;;;;;;5096744;28;20622;-77
2023/05/18 05:41:34;;;;;;;13.07;4.60;;;7.20;1.00;;;;;;5098756;28;20181;-77
2023/05/18 05:44:00;;;;;;;11.10;4.77;;;7.30;1.00;;;;;;5098864;28;20201;-78
2023/05/18 05:46:25;;;;;;;9.90;4.53;;;7.30;1.00;;;;;;5097688;28;20197;-77
2023/05/18 05:48:51;;;;;;;11.63;4.20;;;7.30;1.00;;;;;;5095609;28;20615;-77
2023/05/18 05:51:16;;;;;;;8.07;4.03;;;7.40;1.00;;;;;;5095229;28;20223;-77
2023/05/18 05:53:42;;;;;;;14.10;4.93;;;7.50;1.00;;;;;;5095301;28;20255;-77
2023/05/18 05:56:08;;;;;;;12.53;4.63;;;7.40;1.00;;;;;;5096117;28;20244;-77
2023/05/18 05:58:33;;;;;;;13.20;4.63;;;7.50;1.00;;;;;;5095999;28;20573;-78
2023/05/18 06:01:00;;;;;;;7.97;4.03;;;7.60;1.00;;;;;;5096369;28;20166;-77
2023/05/18 06:03:25;;;;;;;11.47;3.80;;;7.70;1.00;;;;;;5096493;28;20167;-77
2023/05/18 06:05:51;;;;;;;8.97;4.17;;;7.70;1.00;;;;;;5096259;28;20693;-77
2023/05/18 06:08:16;;;;;;;8.70;3.90;;;7.80;1.00;;;;;;5095592;28;20177;-77
2023/05/18 06:10:42;;;;;;;11.40;4.00;;;7.80;1.00;;;;;;5094372;28;20179;-77
2023/05/18 06:13:07;;;;;;;7.60;3.60;;;7.90;1.00;;;;;;5098604;28;20185;-76
2023/05/18 06:15:33;;;;;;;8.17;3.73;;;7.90;1.00;;;;;;5093081;28;20216;-77
2023/05/18 06:17:58;;;;;;;9.87;3.40;;;8.00;1.00;;;;;;5094366;28;20171;-77
2023/05/18 06:20:25;;;;;;;8.30;3.67;;;8.00;1.00;;;;;;5094180;28;20169;-77
2023/05/18 06:22:50;;;;;;;13.00;3.80;;;8.10;1.00;;;;;;5095499;28;20285;-77
2023/05/18 06:25:17;;;;;;;14.53;4.43;;;8.20;1.00;;;;;;5096029;28;20697;-76
2023/05/18 06:27:43;;;;;;;10.83;3.47;;;8.20;1.00;;;;;;5095640;28;20224;-77
2023/05/18 06:30:09;;;;;;;8.40;3.50;;;8.30;1.00;;;;;;5094081;28;20254;-77
2023/05/18 06:32:36;;;;;;;7.70;3.57;;;8.40;1.00;;;;;;5095515;28;20261;-77
2023/05/18 06:35:02;;;;;;;6.60;3.83;;;8.40;1.00;;;;;;5095234;28;20301;-77
2023/05/18 06:37:28;;;;;;;8.77;3.33;;;8.40;1.00;;;;;;5095821;28;20170;-77
2023/05/18 06:39:54;;;;;;;10.33;3.37;;;8.50;1.00;;;;;;5095579;28;20181;-77
2023/05/18 06:42:19;;;;;;;6.87;3.00;;;8.50;1.00;;;;;;5095187;28;20280;-77
2023/05/18 06:44:45;;;;;;;8.13;3.20;;;8.60;1.00;;;;;;5095311;28;20194;-77
2023/05/18 06:47:11;;;;;;;5.40;2.90;;;8.70;1.00;;;;;;5095579;28;20173;-78
2023/05/18 06:49:36;;;;;;;11.63;3.60;;;8.70;1.00;;;;;;5094634;28;20776;-77
2023/05/18 06:52:02;;;;;;;9.73;3.30;;;8.80;1.00;;;;;;5095117;28;20194;-77
2023/05/18 06:54:29;;;;;;;8.70;3.27;;;8.80;99.90;;;;;;5093740;28;20202;-77
2023/05/18 06:56:55;;;;;;;10.37;3.40;;;8.90;1.00;;;;;;5093102;28;20252;-77
2023/05/18 06:59:21;;;;;;;6.87;3.03;;;9.00;1.00;;;;;;5094703;28;20245;-77
2023/05/18 07:01:47;;;;;;;6.60;3.03;;;9.10;99.90;;;;;;5092907;28;20512;-77
2023/05/18 07:04:13;;;;;;;14.50;3.13;;;9.10;99.90;;;;;;5094531;28;20721;-76
2023/05/18 07:06:41;;;;;;;8.93;4.00;;;9.20;99.90;;;;;;5094423;28;20223;-76
2023/05/18 07:09:07;;;;;;;4.90;2.70;;;9.30;99.90;;;;;;5094306;28;20231;-77
2023/05/18 07:11:33;;;;;;;9.17;3.07;;;9.50;99.90;;;;;;5094430;28;20170;-77
2023/05/18 07:13:58;;;;;;;9.77;2.60;;;9.40;99.90;;;;;;5092853;28;20237;-77
2023/05/18 07:16:26;;;;;;;9.60;3.03;;;9.50;99.90;;;;;;5093025;28;20217;-76
2023/05/18 07:18:52;;;;;;;7.87;3.30;;;9.60;99.90;;;;;;5094695;28;20163;-76
2023/05/18 07:21:17;;;;;;;9.53;3.23;;;9.60;99.90;;;;;;5092448;28;20533;-77
2023/05/18 07:23:43;;;;;;;9.40;2.80;;;9.70;99.90;;;;;;5094490;28;20186;-77
2023/05/18 07:26:10;;;;;;;7.97;3.47;;;9.80;99.90;;;;;;5092474;28;20213;-76
2023/05/18 07:28:37;;;;;;;5.77;2.53;;;9.80;99.90;;;;;;5094110;28;20635;-76
2023/05/18 07:31:03;;;;;;;7.37;2.73;;;9.90;99.90;;;;;;5093722;28;20181;-77
2023/05/18 07:33:28;;;;;;;10.17;3.07;;;10.00;99.90;;;;;;5092268;28;20264;-77
2023/05/18 07:35:54;;;;;;;8.90;2.63;;;10.10;99.90;;;;;;5093720;28;20285;-77
2023/05/18 07:38:20;;;;;;;8.70;2.60;;;10.10;77.40;;;;;;5092446;28;20638;-77
2023/05/18 07:40:45;;;;;;;10.67;3.10;;;10.20;99.90;;;;;;5093729;28;20162;-77
2023/05/18 07:43:11;;;;;;;6.70;3.03;;;10.20;99.90;;;;;;5092520;28;20171;-77
2023/05/18 07:45:36;;;;;;;9.20;2.70;;;10.30;99.90;;;;;;5094196;28;20194;-78
2023/05/18 07:48:02;;;;;;;7.40;2.40;;;10.30;99.90;;;;;;5094030;28;20174;-77
2023/05/18 07:50:28;;;;;;;12.50;3.23;;;10.40;99.90;;;;;;5092333;28;20177;-76
2023/05/18 07:52:54;;;;;;;6.53;3.40;;;10.50;99.90;;;;;;5092581;28;20170;-78
2023/05/18 07:55:20;;;;;;;9.30;2.43;;;10.50;99.90;;;;;;5093418;28;20194;-77
2023/05/18 07:57:46;;;;;;;6.53;2.20;;;10.60;99.90;;;;;;5094437;28;20167;-77
2023/05/18 08:00:12;;;;;;;10.80;2.50;;;10.70;99.90;;;;;;5095077;28;20181;-77
2023/05/18 08:02:38;;;;;;;7.60;2.47;;;10.70;99.90;;;;;;5092171;28;20170;-77
2023/05/18 08:05:04;;;;;;;10.30;2.67;;;10.80;99.90;;;;;;5093473;28;20216;-76
2023/05/18 08:07:31;;;;;;;11.63;2.50;;;10.90;99.90;;;;;;5093387;28;20177;-77
2023/05/18 08:09:57;;;;;;;10.03;2.60;;;11.00;85.60;;;;;;5093450;28;20671;-77
2023/05/18 08:12:23;;;;;;;4.60;2.23;;;11.00;1.00;;;;;;5091947;28;20178;-76
2023/05/18 08:14:49;;;;;;;9.30;2.53;;;11.10;68.20;;;;;;5092593;28;20312;-77
2023/05/18 08:17:14;;;;;;;8.30;2.83;;;11.20;99.00;;;;;;5094239;28;20198;-76
2023/05/18 08:19:40;;;;;;;7.23;2.20;;;11.20;99.90;;;;;;5093226;28;20194;-78
2023/05/18 08:22:06;;;;;;;5.50;2.57;;;11.30;99.90;;;;;;5093333;28;20260;-76
2023/05/18 08:24:32;;;;;;;7.87;2.13;;;11.40;9.60;;;;;;5093222;28;20194;-76
2023/05/18 08:26:58;;;;;;;11.70;2.70;;;11.40;6.60;;;;;;5091437;28;20550;-75
2023/05/18 08:29:23;;;;;;;7.57;2.47;;;11.50;1.00;;;;;;5092829;28;20166;-77
2023/05/18 08:31:50;;;;;;;9.80;2.33;;;11.60;10.50;;;;;;5092937;28;20174;-76
2023/05/18 08:34:16;;;;;;;9.63;2.80;;;11.60;1.00;;;;;;5093123;28;20198;-76
2023/05/18 08:36:44;;;;;;;4.63;2.27;;;11.70;1.00;;;;;;5092815;28;20169;-77
2023/05/18 08:39:10;;;;;;;5.30;2.57;;;11.70;1.00;;;;;;5092736;28;20162;-75
2023/05/18 08:41:48;;;;;;;11.27;2.50;;;11.80;1.00;;;;;;5092602;28;20180;-76
2023/05/18 08:44:15;;;;;;;6.13;2.40;;;11.80;1.00;;;;;;5091150;28;20174;-75
2023/05/18 08:46:47;;;;;;;7.53;2.60;;;11.90;1.00;;;;;;5092587;28;20165;-76
2023/05/18 08:49:16;;;;;;;9.00;2.60;;;12.10;1.00;;;;;;5092785;28;20246;-75
2023/05/18 08:51:45;;;;;;;9.17;2.67;;;12.00;1.00;;;;;;5092350;28;20189;-76
2023/05/18 08:54:21;;;;;;;6.77;2.17;;;12.10;1.00;;;;;;5090999;28;20206;-76
2023/05/18 08:56:51;;;;;;;10.00;2.77;;;12.20;1.00;;;;;;5092769;28;20158;-76
2023/05/18 08:59:25;;;;;;;8.70;2.63;;;12.20;1.00;;;;;;5091227;28;20174;-75
2023/05/18 09:01:53;;;;;;;6.23;2.33;;;12.30;1.00;;;;;;5092559;28;20150;-76
2023/05/18 09:04:20;;;;;;;6.33;2.60;;;12.30;1.00;;;;;;5092083;28;20611;-76
2023/05/18 09:06:47;;;;;;;8.27;2.70;;;12.40;1.00;;;;;;5092319;28;20178;-75
2023/05/18 09:09:13;;;;;;;8.37;2.83;;;12.40;1.00;;;;;;5092229;28;20551;-76
2023/05/18 09:11:40;;;;;;;7.37;2.30;;;12.50;1.00;;;;;;5092473;28;20166;-76
2023/05/18 09:14:06;;;;;;;6.63;3.17;;;12.50;1.00;;;;;;5090751;28;20206;-76
2023/05/18 09:16:32;;;;;;;4.93;2.13;;;12.60;1.00;;;;;;5090860;28;20300;-76
2023/05/18 09:18:58;;;;;;;7.43;2.50;;;12.60;1.00;;;;;;5092304;28;20190;-76
2023/05/18 09:21:25;;;;;;;9.60;2.53;;;12.70;1.00;;;;;;5092966;28;20546;-79
2023/05/18 09:23:50;;;;;;;6.13;2.70;;;12.70;1.00;;;;;;5092915;28;20642;-77
2023/05/18 09:26:17;;;;;;;7.87;2.87;;;12.70;1.00;;;;;;5092283;28;20194;-76
2023/05/18 09:28:44;;;;;;;15.20;2.30;;;12.80;1.00;;;;;;5091717;28;20588;-76
2023/05/18 09:31:16;;;;;;;7.57;2.43;;;12.80;1.00;;;;;;5091981;28;20178;-76
2023/05/18 09:33:43;;;;;;;6.60;2.50;;;12.80;1.00;;;;;;5092435;28;20170;-76
2023/05/18 09:36:10;;;;;;;9.60;2.87;;;12.80;1.00;;;;;;5092124;28;20258;-77
2023/05/18 09:38:37;;;;;;;7.63;2.40;;;12.90;1.00;;;;;;5092216;28;20650;-76
2023/05/18 09:41:08;;;;;;;7.47;2.80;;;12.90;1.00;;;;;;5092407;28;20190;-76
2023/05/18 09:43:34;;;;;;;4.93;2.03;;;13.00;1.00;;;;;;5090868;28;20166;-76
2023/05/18 09:46:06;;;;;;;11.73;2.70;;;13.00;1.00;;;;;;5090994;28;20197;-76
2023/05/18 09:48:33;;;;;;;7.90;2.23;;;13.00;99.90;;;;;;5092160;28;20155;-77
2023/05/18 09:50:59;;;;;;;8.10;2.83;;;13.10;1.00;;;;;;5094704;28;20177;-77
2023/05/18 09:53:24;;;;;;;7.33;2.60;;;13.20;1.00;;;;;;5095853;28;20178;-74
2023/05/18 09:55:50;;;;;;;14.07;2.60;;;13.20;99.90;;;;;;5094084;28;20251;-76
2023/05/18 09:58:16;;;;;;;8.03;2.73;;;13.30;99.90;;;;;;5095478;28;20170;-77
2023/05/18 10:00:50;;;;;;;9.50;2.97;;;13.30;99.90;;;;;;5094378;28;20180;-77
2023/05/18 10:03:23;;;;;;;5.03;2.07;;;13.30;99.90;;;;;;5096049;28;20158;-77
2023/05/18 10:05:49;;;;;;;9.97;2.70;;;13.40;1.00;;;;;;5095993;28;20612;-76
2023/05/18 10:08:15;;;;;;;8.10;2.40;;;13.60;1.00;;;;;;5095899;28;20181;-77
2023/05/18 10:10:47;;;;;;;11.87;2.50;;;13.60;1.00;;;;;;5096012;28;20192;-76
2023/05/18 10:13:18;;;;;;;5.03;2.03;;;13.70;1.00;;;;;;5094431;28;20216;-77
2023/05/18 10:15:54;;;;;;;7.17;2.20;;;13.80;99.90;;;;;;5096436;28;20210;-77
2023/05/18 10:18:22;;;;;;;6.87;2.53;;;13.80;99.90;;;;;;5096228;28;20297;-77
2023/05/18 10:20:49;;;;;;;10.07;2.60;;;13.80;1.00;;;;;;5097211;28;20162;-77
2023/05/18 10:23:19;;;;;;;7.13;2.50;;;13.90;99.90;;;;;;5094699;28;20193;-76
2023/05/18 10:25:47;;;;;;;12.50;2.63;;;13.90;99.90;;;;;;5095885;28;20202;-77
2023/05/18 10:28:24;;;;;;;6.23;2.40;;;14.00;99.90;;;;;;5094843;28;20307;-77
2023/05/18 10:30:53;;;;;;;8.20;2.90;;;14.00;99.90;;;;;;5096159;28;20151;-77
2023/05/18 10:33:20;;;;;;;6.13;2.43;;;14.10;99.90;;;;;;5095769;28;20524;-78
2023/05/18 10:35:48;;;;;;;6.43;2.10;;;14.20;99.90;;;;;;5096405;28;20198;-77
2023/05/18 10:38:18;;;;;;;11.97;2.73;;;14.20;1.00;;;;;;5096231;28;20174;-77
2023/05/18 10:40:45;;;;;;;7.33;2.87;;;14.30;1.00;;;;;;5097109;28;20333;-77
2023/05/18 10:43:12;;;;;;;5.73;2.43;;;14.30;1.00;;;;;;5097091;28;20170;-78
2023/05/18 10:45:38;;;;;;;6.10;2.30;;;14.40;1.00;;;;;;5095403;28;20197;-78
2023/05/18 10:48:07;;;;;;;5.20;2.40;;;14.40;99.90;;;;;;5095329;28;20177;-76
2023/05/18 10:50:34;;;;;;;6.27;2.67;;;14.50;99.90;;;;;;5095146;28;20166;-77
2023/05/18 10:53:00;;;;;;;6.43;2.37;;;14.40;99.90;;;;;;5095560;28;20170;-78
2023/05/18 10:55:27;;;;;;;6.07;2.40;;;14.50;99.90;;;;;;5093489;28;20209;-77
2023/05/18 10:58:00;;;;;;;8.20;2.43;;;14.60;99.90;;;;;;5097676;28;20574;-78
2023/05/18 11:00:26;;;;;;;7.33;2.50;;;14.60;99.90;;;;;;5096478;28;20163;-77
2023/05/18 11:02:52;;;;;;;8.93;2.47;;;14.70;99.90;;;;;;5094666;28;20667;-77
2023/05/18 11:05:25;;;;;;;6.23;2.83;;;14.80;1.00;;;;;;5110123;28;20204;-76
2023/05/18 11:07:59;;;;;;;7.80;2.77;;;14.80;99.90;;;;;;5092425;28;20179;-76
2023/05/18 11:10:39;;;;;;;6.57;2.40;;;14.90;99.90;;;;;;5113963;28;20222;-77
2023/05/18 11:13:06;;;;;;;12.17;2.97;;;14.90;99.90;;;;;;5095545;28;20232;-76
2023/05/18 11:15:50;;;;;;;9.77;2.93;;;14.90;99.90;;;;;;5102020;28;20212;-77
2023/05/18 11:18:16;;;;;;;12.97;2.83;;;14.80;18.00;;;;;;5094218;28;20231;-77
2023/05/18 11:20:45;;;;;;;10.63;2.77;;;14.90;99.90;;;;;;5103375;28;20261;-76
2023/05/18 11:23:13;;;;;;;10.53;2.53;;;14.90;99.90;;;;;;5106109;28;20178;-77
2023/05/18 11:25:41;;;;;;;6.43;2.70;;;15.00;99.90;;;;;;5095367;28;20198;-77
2023/05/18 11:28:10;;;;;;;8.30;3.40;;;15.10;99.90;;;;;;5093665;28;20205;-77
2023/05/18 11:30:35;;;;;;;7.90;2.90;;;15.10;99.90;;;;;;5096749;28;20195;-77
2023/05/18 11:33:14;;;;;;;9.10;2.80;;;15.20;99.90;;;;;;5107007;28;20626;-77
2023/05/18 11:36:08;;;;;;;8.27;2.93;;;15.30;99.90;;;;;;5110706;28;20697;-77
2023/05/18 11:38:53;;;;;;;7.70;3.30;;;15.30;99.90;;;;;;5093689;28;20205;-77
2023/05/18 11:41:38;;;;;;;9.53;3.03;;;15.60;99.90;;;;;;5103677;28;20641;-77
2023/05/18 11:44:33;;;;;;;7.87;3.10;;;15.50;96.90;;;;;;5113662;28;20149;-77
2023/05/18 11:47:04;;;;;;;7.40;2.60;;;15.50;13.60;;;;;;5078636;28;20706;-77
2023/05/18 11:49:31;;;;;;;11.70;2.77;;;15.60;99.90;;;;;;5107117;28;20224;-78
2023/05/18 11:52:02;;;;;;;7.47;2.70;;;15.70;99.90;;;;;;5110973;28;20212;-77
2023/05/18 11:54:32;;;;;;;8.97;2.70;;;15.70;99.90;;;;;;5092631;28;20234;-77
2023/05/18 11:56:57;;;;;;;14.20;3.03;;;15.80;99.90;;;;;;5111721;28;20178;-77
2023/05/18 11:59:31;;;;;;;7.53;3.03;;;15.70;1.00;;;;;;5113501;28;20170;-77
2023/05/18 12:02:00;;;;;;;10.03;2.77;;;15.60;1.00;;;;;;5112925;28;20636;-77
2023/05/18 12:04:26;;;;;;;7.20;2.87;;;15.50;1.00;;;;;;5112149;28;20197;-77
2023/05/18 12:06:53;;;;;;;10.10;2.70;;;15.50;1.00;;;;;;5102360;28;20182;-77
2023/05/18 12:09:19;;;;;;;9.00;2.67;;;15.50;99.90;;;;;;5109027;28;20549;-77
2023/05/18 12:11:45;;;;;;;5.80;2.47;;;15.60;44.50;;;;;;5101314;28;20181;-77
2023/05/18 12:14:11;;;;;;;6.70;2.43;;;15.70;99.90;;;;;;5100389;28;20194;-77
2023/05/18 12:16:39;;;;;;;10.60;2.83;;;15.80;1.00;;;;;;5103365;28;20629;-77
2023/05/18 12:19:06;;;;;;;9.27;2.80;;;15.90;99.90;;;;;;5093304;28;20211;-77
2023/05/18 12:21:35;;;;;;;6.60;2.63;;;15.90;1.00;;;;;;5104089;28;20514;-77
2023/05/18 12:24:01;;;;;;;6.40;2.63;;;15.90;80.10;;;;;;5103724;28;20177;-76
2023/05/18 12:26:28;;;;;;;8.53;2.97;;;16.00;1.00;;;;;;5094229;28;20640;-77
2023/05/18 12:28:54;;;;;;;5.80;2.30;;;16.00;1.00;;;;;;5106903;28;20174;-77
2023/05/18 12:31:20;;;;;;;7.97;3.27;;;16.00;1.00;;;;;;5106078;28;20744;-77
2023/05/18 12:33:46;;;;;;;10.30;2.50;;;16.10;99.90;;;;;;5096009;28;20182;-77
2023/05/18 12:36:15;;;;;;;4.87;2.70;;;16.10;44.00;;;;;;5097995;28;20532;-76
2023/05/18 12:38:41;;;;;;;6.53;2.43;;;16.20;1.00;;;;;;5092406;28;20223;-77
2023/05/18 12:41:07;;;;;;;8.73;3.07;;;16.10;99.90;;;;;;5093386;28;20257;-77
2023/05/18 12:43:34;;;;;;;5.73;2.30;;;16.20;1.00;;;;;;5092636;28;20189;-78
2023/05/18 12:46:04;;;;;;;7.80;2.80;;;16.30;1.00;;;;;;5096873;28;20573;-77
2023/05/18 12:48:37;;;;;;;8.53;2.73;;;16.30;99.90;;;;;;5092644;28;20178;-77
2023/05/18 12:51:02;;;;;;;8.13;2.80;;;16.40;1.00;;;;;;5092703;28;20178;-77
2023/05/18 12:53:41;;;;;;;10.90;3.10;;;16.40;99.90;;;;;;5096954;28;20188;-77
2023/05/18 12:56:10;;;;;;;4.77;2.20;;;16.30;99.90;;;;;;5109602;28;20604;-77